Rickmers Dalian — V7FS3 — position and weather

sailwx.info

Track history (hours):
 
Tides and Currents Weather Stations Pressure Air Temp Water Temp Dewpoint Dewpoint Depression Visibility Wind Speed Wind Dir Waves Ship Positions

Rickmers Dalian

Last reported at 2017-Aug-23 16:58 UTC. Time now 2017-Aug-23 17:23 UTC.
Position N 53°29' E 009°59'.

Length 193 m; beam 27.8 m; draft 11.2 m.

Type: Ship. MMSI: 538090156.

Date/timePositionNaut miles runAvg speedWind from/ knotsBaromVisibWave heightAir tempDewpointWater temp
2017-Aug-23 16:58N 53°29' E 009°59'0 0.0
2017-Aug-23 16:28N 53°29' E 009°59'0 0.0
2017-Aug-23 15:58N 53°29' E 009°59'0 0.0
2017-Aug-23 15:28N 53°29' E 009°59'0 0.0
2017-Aug-23 14:58N 53°29' E 009°59'0 0.0
2017-Aug-23 14:28N 53°29' E 009°59'0 0.0
2017-Aug-23 13:28N 53°29' E 009°59'0 0.0
2017-Aug-23 12:58N 53°29' E 009°59'0 0.0
2017-Aug-23 12:28N 53°29' E 009°59'0 0.0
2017-Aug-23 11:58N 53°29' E 009°59'0 0.0
2017-Aug-23 11:28N 53°29' E 009°59'0 0.0
2017-Aug-23 10:58N 53°29' E 009°59'0 0.0
2017-Aug-23 10:28N 53°29' E 009°59'0 0.0
2017-Aug-23 09:58N 53°29' E 009°59'0 0.0
2017-Aug-23 09:28N 53°29' E 009°59'0 0.0
2017-Aug-23 08:58N 53°29' E 009°59'0 0.0
2017-Aug-23 08:28N 53°29' E 009°59'0 0.0
2017-Aug-23 07:58N 53°29' E 009°59'0 0.0
2017-Aug-23 07:28N 53°29' E 009°59'0 0.0
2017-Aug-23 06:58N 53°29' E 009°59'0 0.0
2017-Aug-23 06:28N 53°29' E 009°59'0 0.0
2017-Aug-23 05:58N 53°29' E 009°59'0 0.0
2017-Aug-23 05:28N 53°29' E 009°59'0 0.0
2017-Aug-23 04:58N 53°29' E 009°59'0 0.0
2017-Aug-23 04:28N 53°29' E 009°59'0 0.0
2017-Aug-23 03:58N 53°29' E 009°59'0 0.0
2017-Aug-23 03:28N 53°29' E 009°59'0 0.0
2017-Aug-23 02:58N 53°29' E 009°59'0 0.2
2017-Aug-23 02:30N 53°29' E 009°59'1 2.2
2017-Aug-23 02:00N 53°30' E 009°58'0 0.7
2017-Aug-23 01:31N 53°30' E 009°57'3 5.3
2017-Aug-23 01:00N 53°32' E 009°54'510.3
2017-Aug-23 00:31N 53°34' E 009°46'713.2
2017-Aug-23 00:01N 53°36' E 009°36'713.2
2017-Aug-22 23:30N 53°42' E 009°30'714.5
2017-Aug-22 23:00N 53°48' E 009°23'714.7
2017-Aug-22 22:31N 53°53' E 009°14'4 8.0
2017-Aug-22 22:00N 53°53' E 009°07'713.1
2017-Aug-22 21:31N 53°51' E 008°57'713.7
2017-Aug-22 21:00N 53°51' E 008°45'713.4
2017-Aug-22 20:30N 53°57' E 008°38'1116.1
2017-Aug-22 19:50N 53°59' E 008°21'912.8
2017-Aug-22 19:07N 53°59' E 008°05'3 7.6
2017-Aug-22 18:44N 53°59' E 008°00'8712.4
2017-Aug-22 11:41N 53°36' E 005°37'315.9
2017-Aug-22 11:30N 53°35' E 005°33'815.7
2017-Aug-22 11:00N 53°32' E 005°20'815.8
2017-Aug-22 10:30N 53°30' E 005°08'816.1
2017-Aug-22 10:00N 53°27' E 004°55'815.8
2017-Aug-22 09:30N 53°24' E 004°43'815.9
2017-Aug-22 09:00N 53°17' E 004°36'816.0
2017-Aug-22 08:30N 53°10' E 004°30'815.7
2017-Aug-22 08:01N 53°03' E 004°24'815.7
2017-Aug-22 07:30N 52°56' E 004°18'815.8
2017-Aug-22 07:00N 52°49' E 004°11'815.8
2017-Aug-22 06:30N 52°43' E 004°03'815.8
2017-Aug-22 06:00N 52°37' E 003°54'4 8.1
2017-Aug-22 05:30N 52°35' E 003°49'816.2
2017-Aug-22 05:01N 52°28' E 003°41'816.8
2017-Aug-22 04:31N 52°21' E 003°34'917.1
2017-Aug-22 04:00N 52°13' E 003°29'917.8
2017-Aug-22 03:30N 52°05' E 003°24'917.2
2017-Aug-22 03:00N 51°56' E 003°22'917.7
2017-Aug-22 02:30N 51°48' E 003°17'713.0
2017-Aug-22 02:00N 51°41' E 003°18'816.3
2017-Aug-22 01:31N 51°35' E 003°25'816.2
2017-Aug-22 01:00N 51°28' E 003°31'5 9.3
2017-Aug-22 00:30N 51°26' E 003°38'510.6
2017-Aug-22 00:00N 51°22' E 003°44'612.5
2017-Aug-21 23:30N 51°22' E 003°54'612.3
2017-Aug-21 23:01N 51°26' E 004°01'611.6
2017-Aug-21 22:30N 51°22' E 004°08'4 8.0
2017-Aug-21 22:00N 51°21' E 004°15'2 3.7
2017-Aug-21 21:30N 51°21' E 004°17'0 0.0
2017-Aug-21 21:01N 51°21' E 004°17'0 0.7
2017-Aug-21 20:30N 51°21' E 004°18'2 3.7
2017-Aug-21 20:00N 51°19' E 004°19'2 4.6
2017-Aug-21 19:31N 51°17' E 004°21'1 2.5
2017-Aug-21 18:59N 51°17' E 004°23'0 0.0
2017-Aug-21 18:29N 51°17' E 004°23'0 0.0
2017-Aug-21 17:59N 51°17' E 004°23'0 0.0
2017-Aug-21 17:29N 51°17' E 004°23'0 0.0
2017-Aug-21 16:59N 51°17' E 004°23'0 0.0
2017-Aug-21 16:29N 51°17' E 004°23'0 0.0
2017-Aug-21 15:59N 51°17' E 004°23'0 0.0
2017-Aug-21 15:29N 51°17' E 004°23'0 0.0
2017-Aug-21 14:59N 51°17' E 004°23'0 0.0
2017-Aug-21 14:29N 51°17' E 004°23'0 0.0
2017-Aug-21 13:59N 51°17' E 004°23'0 0.0
2017-Aug-21 13:29N 51°17' E 004°23'0 0.0
2017-Aug-21 12:59N 51°17' E 004°23'0 0.0
2017-Aug-21 12:29N 51°17' E 004°23'0 0.0
2017-Aug-21 11:59N 51°17' E 004°23'0 0.0
2017-Aug-21 11:29N 51°17' E 004°23'0 0.0
2017-Aug-21 10:59N 51°17' E 004°23'0 0.0
2017-Aug-21 10:29N 51°17' E 004°23'0 0.0
2017-Aug-21 09:59N 51°17' E 004°23'0 0.0
2017-Aug-21 09:29N 51°17' E 004°23'0 0.0
2017-Aug-21 08:59N 51°17' E 004°23'0 0.0
2017-Aug-21 08:29N 51°17' E 004°23'0 0.0
2017-Aug-21 07:59N 51°17' E 004°23'0 0.0
2017-Aug-21 07:29N 51°17' E 004°23'0 0.0
2017-Aug-21 06:59N 51°17' E 004°23'0 0.0
2017-Aug-21 06:29N 51°17' E 004°23'0 0.0
2017-Aug-21 05:59N 51°17' E 004°23'0 0.0
2017-Aug-21 05:29N 51°17' E 004°23'0 0.0
2017-Aug-21 04:56N 51°17' E 004°23'0 0.0
2017-Aug-21 04:29N 51°17' E 004°23'0 0.0
2017-Aug-21 03:59N 51°17' E 004°23'0 0.0
2017-Aug-21 03:29N 51°17' E 004°23'0 0.0
2017-Aug-21 02:56N 51°17' E 004°23'0 0.0
2017-Aug-21 02:29N 51°17' E 004°23'0 0.0
2017-Aug-21 01:59N 51°17' E 004°23'0 0.0
2017-Aug-21 01:29N 51°17' E 004°23'0 0.0
2017-Aug-21 00:59N 51°17' E 004°23'0 0.0
2017-Aug-21 00:29N 51°17' E 004°23'0 0.0
2017-Aug-20 23:59N 51°17' E 004°23'0 0.0
2017-Aug-20 23:29N 51°17' E 004°23'0 0.0
2017-Aug-20 22:59N 51°17' E 004°23'0 0.0
2017-Aug-20 22:26N 51°17' E 004°23'0 0.0
2017-Aug-20 21:59N 51°17' E 004°23'0 0.0
2017-Aug-20 21:29N 51°17' E 004°23'0 0.0
2017-Aug-20 20:59N 51°17' E 004°23'0 0.0
2017-Aug-20 20:29N 51°17' E 004°23'0 0.0
2017-Aug-20 19:59N 51°17' E 004°23'0 0.0
2017-Aug-20 19:29N 51°17' E 004°23'0 0.0
2017-Aug-20 18:59N 51°17' E 004°23'0 0.0
2017-Aug-20 18:29N 51°17' E 004°23'0 0.0
2017-Aug-20 17:59N 51°17' E 004°23'0 0.0
2017-Aug-20 17:26N 51°17' E 004°23'0 0.0
2017-Aug-20 16:59N 51°17' E 004°23'0 0.0
2017-Aug-20 16:29N 51°17' E 004°23'0 0.0
2017-Aug-20 15:59N 51°17' E 004°23'0 0.0
2017-Aug-20 15:29N 51°17' E 004°23'0 0.0
2017-Aug-20 14:59N 51°17' E 004°23'0 0.0
2017-Aug-20 14:29N 51°17' E 004°23'0 0.0
2017-Aug-20 13:59N 51°17' E 004°23'0 0.0
2017-Aug-20 13:29N 51°17' E 004°23'0 0.0
2017-Aug-20 12:59N 51°17' E 004°23'0 0.0
2017-Aug-20 12:29N 51°17' E 004°23'0 0.0
2017-Aug-20 11:59N 51°17' E 004°23'0 0.0
2017-Aug-20 11:29N 51°17' E 004°23'0 0.0
2017-Aug-20 10:59N 51°17' E 004°23'0 0.0
2017-Aug-20 10:29N 51°17' E 004°23'0 0.0
2017-Aug-20 09:59N 51°17' E 004°23'0 0.0
2017-Aug-20 09:29N 51°17' E 004°23'0 0.0
2017-Aug-20 08:59N 51°17' E 004°23'0 0.0
2017-Aug-20 08:29N 51°17' E 004°23'0 0.0
2017-Aug-20 07:59N 51°17' E 004°23'0 0.0
2017-Aug-20 07:29N 51°17' E 004°23'0 0.0
2017-Aug-20 06:59N 51°17' E 004°23'0 0.0
2017-Aug-20 06:29N 51°17' E 004°23'0 0.0
2017-Aug-20 05:59N 51°17' E 004°23'0 0.0
2017-Aug-20 05:29N 51°17' E 004°23'0 0.0
2017-Aug-20 04:59N 51°17' E 004°23'0 0.0
2017-Aug-20 04:29N 51°17' E 004°23'0 0.0
2017-Aug-20 03:59N 51°17' E 004°23'0 0.0
2017-Aug-20 03:29N 51°17' E 004°23'0 0.0
2017-Aug-20 02:59N 51°17' E 004°23'0 0.0
2017-Aug-20 02:29N 51°17' E 004°23'0 0.0
2017-Aug-20 01:59N 51°17' E 004°23'0 0.0
2017-Aug-20 01:29N 51°17' E 004°23'0 0.0
2017-Aug-20 00:59N 51°17' E 004°23'0 0.0
2017-Aug-20 00:29N 51°17' E 004°23'0 0.0
2017-Aug-19 23:59N 51°17' E 004°23'0 0.0
2017-Aug-19 23:29N 51°17' E 004°23'0 0.0
2017-Aug-19 22:59N 51°17' E 004°23'0 0.0
2017-Aug-19 22:29N 51°17' E 004°23'0 0.0
2017-Aug-19 21:59N 51°17' E 004°23'0 0.0
2017-Aug-19 21:29N 51°17' E 004°23'0 0.0
2017-Aug-19 20:59N 51°17' E 004°23'0 0.0
2017-Aug-19 20:29N 51°17' E 004°23'0 0.0
2017-Aug-19 19:59N 51°17' E 004°23'0 0.0
2017-Aug-19 19:29N 51°17' E 004°23'0 0.0
2017-Aug-19 18:59N 51°17' E 004°23'0 0.0
2017-Aug-19 18:29N 51°17' E 004°23'0 0.0
2017-Aug-19 17:59N 51°17' E 004°23'0 0.0
2017-Aug-19 17:29N 51°17' E 004°23'0 0.0
2017-Aug-19 16:59N 51°17' E 004°23'0 0.0
2017-Aug-19 16:29N 51°17' E 004°23'0 0.0
2017-Aug-19 15:59N 51°17' E 004°23'0 0.0
2017-Aug-19 15:29N 51°17' E 004°23'0 0.0
2017-Aug-19 14:59N 51°17' E 004°23'0 0.0
2017-Aug-19 13:59N 51°17' E 004°23'0 0.0
2017-Aug-19 13:29N 51°17' E 004°23'0 0.0
2017-Aug-19 12:59N 51°17' E 004°23'0 0.0
2017-Aug-19 12:29N 51°17' E 004°23'0 0.0
2017-Aug-19 11:59N 51°17' E 004°23'0 0.0
2017-Aug-19 11:29N 51°17' E 004°23'0 0.0
2017-Aug-19 10:59N 51°17' E 004°23'0 0.0
2017-Aug-19 10:29N 51°17' E 004°23'0 0.0
2017-Aug-19 09:59N 51°17' E 004°23'0 0.0
2017-Aug-19 09:29N 51°17' E 004°23'0 0.0
2017-Aug-19 08:59N 51°17' E 004°23'0 0.0
2017-Aug-19 08:29N 51°17' E 004°23'0 0.0
2017-Aug-19 07:59N 51°17' E 004°23'0 0.0
2017-Aug-19 07:29N 51°17' E 004°23'0 0.0
2017-Aug-19 06:59N 51°17' E 004°23'0 0.0
2017-Aug-19 06:29N 51°17' E 004°23'0 0.0
2017-Aug-19 05:59N 51°17' E 004°23'0 0.0
2017-Aug-19 05:29N 51°17' E 004°23'0 0.0
2017-Aug-19 04:59N 51°17' E 004°23'0 0.0
2017-Aug-19 04:29N 51°17' E 004°23'0 0.0
2017-Aug-19 03:59N 51°17' E 004°23'0 0.0
2017-Aug-19 03:29N 51°17' E 004°23'0 0.0
2017-Aug-19 02:59N 51°17' E 004°23'0 0.0
2017-Aug-19 02:29N 51°17' E 004°23'0 0.0
2017-Aug-19 01:59N 51°17' E 004°23'0 0.0
2017-Aug-19 01:29N 51°17' E 004°23'0 0.0
2017-Aug-19 00:59N 51°17' E 004°23'0 0.0
2017-Aug-19 00:29N 51°17' E 004°23'0 0.0
2017-Aug-18 23:59N 51°17' E 004°23'0 0.0
2017-Aug-18 23:29N 51°17' E 004°23'0 0.0
2017-Aug-18 22:59N 51°17' E 004°23'0 0.0
2017-Aug-18 22:29N 51°17' E 004°23'0 0.0
2017-Aug-18 21:59N 51°17' E 004°23'0 0.0
2017-Aug-18 21:29N 51°17' E 004°23'0 0.0
2017-Aug-18 20:59N 51°17' E 004°23'0 0.0
2017-Aug-18 20:29N 51°17' E 004°23'0 0.0
2017-Aug-18 19:59N 51°17' E 004°23'0 0.0
2017-Aug-18 19:29N 51°17' E 004°23'0 0.0
2017-Aug-18 18:59N 51°17' E 004°23'0 0.0
2017-Aug-18 18:29N 51°17' E 004°23'0 0.0
2017-Aug-18 17:59N 51°17' E 004°23'0 0.0
2017-Aug-18 17:29N 51°17' E 004°23'0 0.0
2017-Aug-18 16:59N 51°17' E 004°23'0 0.0
2017-Aug-18 16:29N 51°17' E 004°23'0 0.0
2017-Aug-18 15:59N 51°17' E 004°23'0 0.0
2017-Aug-18 15:29N 51°17' E 004°23'0 0.0
2017-Aug-18 14:59N 51°17' E 004°23'0 0.0
2017-Aug-18 14:29N 51°17' E 004°23'0 0.0
2017-Aug-18 13:29N 51°17' E 004°23'0 0.0
2017-Aug-18 12:59N 51°17' E 004°23'0 0.0
2017-Aug-18 12:29N 51°17' E 004°23'0 0.0
2017-Aug-18 11:56N 51°17' E 004°23'0 0.0
2017-Aug-18 11:29N 51°17' E 004°23'0 0.0
2017-Aug-18 10:59N 51°17' E 004°23'0 0.0
2017-Aug-18 10:29N 51°17' E 004°23'0 0.0
2017-Aug-18 09:59N 51°17' E 004°23'0 0.0
2017-Aug-18 09:26N 51°17' E 004°23'0 0.0
2017-Aug-18 08:59N 51°17' E 004°23'0 0.0
2017-Aug-18 08:26N 51°17' E 004°23'0 0.0
2017-Aug-18 07:59N 51°17' E 004°23'0 0.0
2017-Aug-18 07:29N 51°17' E 004°23'0 0.0
2017-Aug-18 06:59N 51°17' E 004°23'0 0.0
2017-Aug-18 06:29N 51°17' E 004°23'0 0.0
2017-Aug-18 05:59N 51°17' E 004°23'0 0.0
2017-Aug-18 05:29N 51°17' E 004°23'0 0.0
2017-Aug-18 04:59N 51°17' E 004°23'0 0.0
2017-Aug-18 04:29N 51°17' E 004°23'0 0.0
2017-Aug-18 03:59N 51°17' E 004°23'0 0.0
2017-Aug-18 03:29N 51°17' E 004°23'0 0.0
2017-Aug-18 02:59N 51°17' E 004°23'0 0.0
2017-Aug-18 02:29N 51°17' E 004°23'0 0.0
2017-Aug-18 01:59N 51°17' E 004°23'0 0.0
2017-Aug-18 01:29N 51°17' E 004°23'0 0.0
2017-Aug-18 00:59N 51°17' E 004°23'0 0.0
2017-Aug-18 00:29N 51°17' E 004°23'0 0.0
2017-Aug-17 23:59N 51°17' E 004°23'0 0.0
2017-Aug-17 23:29N 51°17' E 004°23'0 0.0
2017-Aug-17 22:59N 51°17' E 004°23'0 0.0
2017-Aug-17 22:29N 51°17' E 004°23'0 0.0
2017-Aug-17 21:59N 51°17' E 004°23'0 0.0
2017-Aug-17 21:29N 51°17' E 004°23'0 0.0
2017-Aug-17 20:56N 51°17' E 004°23'0 0.0
2017-Aug-17 20:29N 51°17' E 004°23'0 0.0
2017-Aug-17 19:59N 51°17' E 004°23'0 0.0
2017-Aug-17 19:29N 51°17' E 004°23'0 0.0
2017-Aug-17 18:59N 51°17' E 004°23'0 0.0
2017-Aug-17 18:29N 51°17' E 004°23'0 0.0
2017-Aug-17 17:59N 51°17' E 004°23'0 0.0
2017-Aug-17 17:29N 51°17' E 004°23'0 0.0
2017-Aug-17 16:59N 51°17' E 004°23'0 0.0
2017-Aug-17 16:29N 51°17' E 004°23'0 0.0
2017-Aug-17 15:59N 51°17' E 004°23'0 0.0
2017-Aug-17 15:29N 51°17' E 004°23'0 0.0
2017-Aug-17 14:59N 51°17' E 004°23'0 0.0
2017-Aug-17 14:29N 51°17' E 004°23'0 0.0
2017-Aug-17 13:59N 51°17' E 004°23'0 0.0
2017-Aug-17 13:29N 51°17' E 004°23'0 0.0
2017-Aug-17 12:59N 51°17' E 004°23'0 0.0
2017-Aug-17 12:29N 51°17' E 004°23'0 0.0
2017-Aug-17 11:59N 51°17' E 004°23'0 0.0
2017-Aug-17 11:29N 51°17' E 004°23'0 0.0
2017-Aug-17 10:59N 51°17' E 004°23'0 0.0
2017-Aug-17 10:29N 51°17' E 004°23'0 0.0
2017-Aug-17 09:59N 51°17' E 004°23'0 0.0
2017-Aug-17 09:29N 51°17' E 004°23'0 0.0
2017-Aug-17 08:56N 51°17' E 004°23'0 0.0
2017-Aug-17 08:29N 51°17' E 004°23'0 0.0
2017-Aug-17 07:59N 51°17' E 004°23'0 0.0
2017-Aug-17 07:29N 51°17' E 004°23'0 0.0
2017-Aug-17 06:59N 51°17' E 004°23'0 0.0
2017-Aug-17 06:29N 51°17' E 004°23'0 0.0
2017-Aug-17 05:59N 51°17' E 004°23'0 0.0
2017-Aug-17 05:29N 51°17' E 004°23'0 0.0
2017-Aug-17 04:59N 51°17' E 004°23'0 0.0
2017-Aug-17 04:29N 51°17' E 004°23'0 0.0
2017-Aug-17 03:59N 51°17' E 004°23'0 0.0
2017-Aug-17 03:29N 51°17' E 004°23'0 0.0
2017-Aug-17 02:59N 51°17' E 004°23'0 0.0
2017-Aug-17 02:29N 51°17' E 004°23'0 0.0
2017-Aug-17 01:59N 51°17' E 004°23'0 0.0
2017-Aug-17 01:29N 51°17' E 004°23'0 0.0
2017-Aug-17 00:59N 51°17' E 004°23'0 0.0
2017-Aug-17 00:29N 51°17' E 004°23'0 0.0
2017-Aug-16 23:59N 51°17' E 004°23'0 0.0
2017-Aug-16 23:29N 51°17' E 004°23'0 0.0
2017-Aug-16 22:59N 51°17' E 004°23'0 0.0
2017-Aug-16 22:29N 51°17' E 004°23'0 0.0
2017-Aug-16 21:59N 51°17' E 004°23'0 0.0
2017-Aug-16 21:29N 51°17' E 004°23'0 0.0
2017-Aug-16 20:59N 51°17' E 004°23'0 0.0
2017-Aug-16 20:29N 51°17' E 004°23'0 0.0
2017-Aug-16 19:59N 51°17' E 004°23'0 0.0
2017-Aug-16 19:29N 51°17' E 004°23'0 0.0
2017-Aug-16 18:59N 51°17' E 004°23'0 0.0
2017-Aug-16 18:29N 51°17' E 004°23'0 0.0
2017-Aug-16 17:59N 51°17' E 004°23'0 0.0
2017-Aug-16 17:29N 51°17' E 004°23'0 0.0
2017-Aug-16 16:59N 51°17' E 004°23'0 0.0
2017-Aug-16 16:29N 51°17' E 004°23'0 0.0
2017-Aug-16 15:59N 51°17' E 004°23'0 0.0
2017-Aug-16 15:29N 51°17' E 004°23'0 0.0
2017-Aug-16 14:59N 51°17' E 004°23'0 0.0
2017-Aug-16 14:29N 51°17' E 004°23'0 0.0
2017-Aug-16 13:59N 51°17' E 004°23'0 0.0
2017-Aug-16 13:29N 51°17' E 004°23'0 0.0
2017-Aug-16 12:59N 51°17' E 004°23'0 0.0
2017-Aug-16 12:29N 51°17' E 004°23'0 0.0
2017-Aug-16 11:59N 51°17' E 004°23'0 0.0
2017-Aug-16 11:29N 51°17' E 004°23'0 0.0
2017-Aug-16 10:59N 51°17' E 004°23'0 0.0
2017-Aug-16 10:29N 51°17' E 004°23'0 0.0
2017-Aug-16 09:59N 51°17' E 004°23'0 0.0
2017-Aug-16 09:29N 51°17' E 004°23'0 0.0
2017-Aug-16 08:59N 51°17' E 004°23'1 1.1
2017-Aug-16 08:31N 51°17' E 004°22'1 2.9
2017-Aug-16 08:01N 51°17' E 004°20'0 0.0
2017-Aug-16 07:30N 51°17' E 004°20'0 0.5
2017-Aug-16 07:00N 51°17' E 004°20'3 6.4
2017-Aug-16 06:30N 51°19' E 004°16'611.0
2017-Aug-16 06:00N 51°23' E 004°10'612.2
2017-Aug-16 05:31N 51°26' E 004°01'815.4
2017-Aug-16 05:00N 51°21' E 003°52'714.1
2017-Aug-16 04:31N 51°25' E 003°42'510.7
2017-Aug-16 04:00N 51°25' E 003°34'4 8.4
2017-Aug-16 03:30N 51°25' E 003°27'611.7
2017-Aug-16 03:00N 51°24' E 003°18'714.3
2017-Aug-16 02:30N 51°24' E 003°06'713.4
2017-Aug-16 02:00N 51°22' E 002°56'714.8
2017-Aug-16 01:30N 51°22' E 002°44'612.0
2017-Aug-16 01:00N 51°22' E 002°35'713.3
2017-Aug-16 00:31N 51°20' E 002°24'2 4.6
2017-Aug-16 00:00N 51°21' E 002°21'510.1
2017-Aug-15 23:30N 51°22' E 002°28'1 2.4
2017-Aug-15 23:00N 51°21' E 002°27'4 8.8
2017-Aug-15 22:30N 51°19' E 002°21'510.4
2017-Aug-15 22:00N 51°16' E 002°14'510.7
2017-Aug-15 21:30N 51°13' E 002°07'510.9
2017-Aug-15 21:00N 51°11' E 001°59'611.1
2017-Aug-15 20:30N 51°08' E 001°52'714.0
2017-Aug-15 20:01N 51°04' E 001°43'815.3
2017-Aug-15 19:31N 50°58' E 001°35'815.7
2017-Aug-15 19:01N 50°52' E 001°28'815.3
2017-Aug-15 18:31N 50°45' E 001°23'714.7
2017-Aug-15 18:00N 50°39' E 001°15'714.9
2017-Aug-15 17:31N 50°34' E 001°06'714.9
2017-Aug-15 17:00N 50°30' E 000°57'2815.1
2017-Aug-15 15:11N 50°22' E 000°16'1015.6
2017-Aug-15 14:33N 50°19' E 000°01'115.5
2017-Aug-15 14:30N 50°19' W 000°00'1816.0
2017-Aug-15 13:24N 50°15' W 000°28'1217.3
2017-Aug-15 12:44N 50°12' W 000°45'417.2
2017-Aug-15 12:30N 50°11' W 000°51'917.1
2017-Aug-15 12:01N 50°09' W 001°04'816.6
2017-Aug-15 11:30N 50°06' W 001°16'816.2
2017-Aug-15 11:00N 50°04' W 001°28'816.4
2017-Aug-15 10:31N 50°02' W 001°40'816.3
2017-Aug-15 10:01N 49°59' W 001°52'815.5
2017-Aug-15 09:28N 49°57' W 002°05'1814.9
2017-Aug-15 08:16N 49°52' W 002°32'414.6
2017-Aug-15 08:01N 49°52' W 002°37'714.7
2017-Aug-15 07:30N 49°50' W 002°48'1614.5
2017-Aug-15 06:23N 49°42' W 003°10'514.6
2017-Aug-15 06:01N 49°39' W 003°18'714.7
2017-Aug-15 05:30N 49°35' W 003°28'3614.8
2017-Aug-15 03:04N 49°17' W 004°16'215.1
2017-Aug-15 02:56N 49°16' W 004°18'615.0
2017-Aug-15 02:30N 49°13' W 004°27'815.2
2017-Aug-15 02:00N 49°09' W 004°37'815.3
2017-Aug-15 01:28N 49°05' W 004°48'815.4
2017-Aug-15 00:54N 49°00' W 004°59'615.3
2017-Aug-15 00:30N 48°57' W 005°07'1015.5
2017-Aug-14 23:53N 48°52' W 005°20'1215.4
2017-Aug-14 23:07N 48°46' W 005°35'214.9
2017-Aug-14 22:58N 48°45' W 005°38'3114.9
2017-Aug-14 20:53N 48°15' W 005°50'717.1
2017-Aug-14 20:30N 48°11' W 005°42'917.7
2017-Aug-14 20:00N 48°05' W 005°32'917.7
2017-Aug-14 19:30N 47°60' W 005°22'918.1
2017-Aug-14 19:00N 47°54' W 005°12'918.2
2017-Aug-14 18:30N 47°48' W 005°01'918.2
2017-Aug-14 18:00N 47°44' W 004°49'917.8
2017-Aug-14 17:31N 47°39' W 004°38'917.6
2017-Aug-14 17:01N 47°34' W 004°27'917.7
2017-Aug-14 16:30N 47°30' W 004°16'917.9
2017-Aug-14 16:01N 47°25' W 004°05'917.6
2017-Aug-14 15:31N 47°20' W 003°54'917.5
2017-Aug-14 15:01N 47°16' W 003°43'816.3
2017-Aug-14 14:31N 47°12' W 003°32'815.9
2017-Aug-14 14:00N 47°08' W 003°22'816.1
2017-Aug-14 13:31N 47°05' W 003°11'916.5
2017-Aug-14 12:59N 47°03' W 002°59'816.5
2017-Aug-14 12:31N 47°01' W 002°48'816.4
2017-Aug-14 12:00N 47°02' W 002°35'816.3
2017-Aug-14 11:31N 47°06' W 002°25'612.2
2017-Aug-14 11:01N 47°10' W 002°19'714.6
2017-Aug-14 10:30N 47°16' W 002°12'3 5.6
2017-Aug-14 10:00N 47°18' W 002°09'0 0.0
2017-Aug-14 09:29N 47°18' W 002°09'0 0.0
2017-Aug-14 08:59N 47°18' W 002°09'0 0.0
2017-Aug-14 08:29N 47°18' W 002°09'0 0.0
2017-Aug-14 07:59N 47°18' W 002°09'0 0.0
2017-Aug-14 07:29N 47°18' W 002°09'0 0.0
2017-Aug-14 06:59N 47°18' W 002°09'0 0.0
2017-Aug-14 06:29N 47°18' W 002°09'0 0.0
2017-Aug-14 05:59N 47°18' W 002°09'0 0.0
2017-Aug-14 05:29N 47°18' W 002°09'0 0.0
2017-Aug-14 04:59N 47°18' W 002°09'0 0.0
2017-Aug-14 04:30N 47°18' W 002°09'1 2.3
2017-Aug-14 04:00N 47°17' W 002°10'612.6
2017-Aug-14 03:31N 47°13' W 002°17'612.2
2017-Aug-14 03:01N 47°08' W 002°22'4 8.7
2017-Aug-14 02:30N 47°04' W 002°26'713.7
2017-Aug-14 02:00N 47°01' W 002°35'713.1
2017-Aug-14 01:30N 47°00' W 002°45'713.9
2017-Aug-14 01:00N 47°01' W 002°55'713.7
2017-Aug-14 00:30N 47°02' W 003°05'713.9
2017-Aug-14 00:01N 47°04' W 003°15'714.1
2017-Aug-13 23:31N 47°05' W 003°25'814.1
2017-Aug-13 22:56N 47°06' W 003°37'614.1
2017-Aug-13 22:31N 47°07' W 003°45'714.3
2017-Aug-13 22:01N 47°08' W 003°56'914.2
2017-Aug-13 21:22N 47°10' W 004°09'514.4
2017-Aug-13 21:01N 47°11' W 004°16'1914.7
2017-Aug-13 19:44N 47°14' W 004°43'415.1
2017-Aug-13 19:27N 47°15' W 004°50'  
Track history (hours):
 
Tides and Currents Weather Stations Pressure Air Temp Water Temp Dewpoint Dewpoint Depression Visibility Wind Speed Wind Dir Waves Ship Positions

Rickmers Dalian

Last reported at 2017-Aug-23 16:58 UTC. Time now 2017-Aug-23 17:23 UTC.
Position N 53°29' E 009°59'.

Length 193 m; beam 27.8 m; draft 11.2 m.

Type: Ship. MMSI: 538090156.

Date/timePositionNaut miles runAvg speedWind from/ knotsBaromVisibWave heightAir tempDewpointWater temp
2017-Aug-23 16:58N 53°29' E 009°59'0 0.0
2017-Aug-23 16:28N 53°29' E 009°59'0 0.0
2017-Aug-23 15:58N 53°29' E 009°59'0 0.0
2017-Aug-23 15:28N 53°29' E 009°59'0 0.0
2017-Aug-23 14:58N 53°29' E 009°59'0 0.0
2017-Aug-23 14:28N 53°29' E 009°59'0 0.0
2017-Aug-23 13:28N 53°29' E 009°59'0 0.0
2017-Aug-23 12:58N 53°29' E 009°59'0 0.0
2017-Aug-23 12:28N 53°29' E 009°59'0 0.0
2017-Aug-23 11:58N 53°29' E 009°59'0 0.0
2017-Aug-23 11:28N 53°29' E 009°59'0 0.0
2017-Aug-23 10:58N 53°29' E 009°59'0 0.0
2017-Aug-23 10:28N 53°29' E 009°59'0 0.0
2017-Aug-23 09:58N 53°29' E 009°59'0 0.0
2017-Aug-23 09:28N 53°29' E 009°59'0 0.0
2017-Aug-23 08:58N 53°29' E 009°59'0 0.0
2017-Aug-23 08:28N 53°29' E 009°59'0 0.0
2017-Aug-23 07:58N 53°29' E 009°59'0 0.0
2017-Aug-23 07:28N 53°29' E 009°59'0 0.0
2017-Aug-23 06:58N 53°29' E 009°59'0 0.0
2017-Aug-23 06:28N 53°29' E 009°59'0 0.0
2017-Aug-23 05:58N 53°29' E 009°59'0 0.0
2017-Aug-23 05:28N 53°29' E 009°59'0 0.0
2017-Aug-23 04:58N 53°29' E 009°59'0 0.0
2017-Aug-23 04:28N 53°29' E 009°59'0 0.0
2017-Aug-23 03:58N 53°29' E 009°59'0 0.0
2017-Aug-23 03:28N 53°29' E 009°59'0 0.0
2017-Aug-23 02:58N 53°29' E 009°59'0 0.2
2017-Aug-23 02:30N 53°29' E 009°59'1 2.2
2017-Aug-23 02:00N 53°30' E 009°58'0 0.7
2017-Aug-23 01:31N 53°30' E 009°57'3 5.3
2017-Aug-23 01:00N 53°32' E 009°54'510.3
2017-Aug-23 00:31N 53°34' E 009°46'713.2
2017-Aug-23 00:01N 53°36' E 009°36'713.2
2017-Aug-22 23:30N 53°42' E 009°30'714.5
2017-Aug-22 23:00N 53°48' E 009°23'714.7
2017-Aug-22 22:31N 53°53' E 009°14'4 8.0
2017-Aug-22 22:00N 53°53' E 009°07'713.1
2017-Aug-22 21:31N 53°51' E 008°57'713.7
2017-Aug-22 21:00N 53°51' E 008°45'713.4
2017-Aug-22 20:30N 53°57' E 008°38'1116.1
2017-Aug-22 19:50N 53°59' E 008°21'912.8
2017-Aug-22 19:07N 53°59' E 008°05'3 7.6
2017-Aug-22 18:44N 53°59' E 008°00'8712.4
2017-Aug-22 11:41N 53°36' E 005°37'315.9
2017-Aug-22 11:30N 53°35' E 005°33'815.7
2017-Aug-22 11:00N 53°32' E 005°20'815.8
2017-Aug-22 10:30N 53°30' E 005°08'816.1
2017-Aug-22 10:00N 53°27' E 004°55'815.8
2017-Aug-22 09:30N 53°24' E 004°43'815.9
2017-Aug-22 09:00N 53°17' E 004°36'816.0
2017-Aug-22 08:30N 53°10' E 004°30'815.7
2017-Aug-22 08:01N 53°03' E 004°24'815.7
2017-Aug-22 07:30N 52°56' E 004°18'815.8
2017-Aug-22 07:00N 52°49' E 004°11'815.8
2017-Aug-22 06:30N 52°43' E 004°03'815.8
2017-Aug-22 06:00N 52°37' E 003°54'4 8.1
2017-Aug-22 05:30N 52°35' E 003°49'816.2
2017-Aug-22 05:01N 52°28' E 003°41'816.8
2017-Aug-22 04:31N 52°21' E 003°34'917.1
2017-Aug-22 04:00N 52°13' E 003°29'917.8
2017-Aug-22 03:30N 52°05' E 003°24'917.2
2017-Aug-22 03:00N 51°56' E 003°22'917.7
2017-Aug-22 02:30N 51°48' E 003°17'713.0
2017-Aug-22 02:00N 51°41' E 003°18'816.3
2017-Aug-22 01:31N 51°35' E 003°25'816.2
2017-Aug-22 01:00N 51°28' E 003°31'5 9.3
2017-Aug-22 00:30N 51°26' E 003°38'510.6
2017-Aug-22 00:00N 51°22' E 003°44'612.5
2017-Aug-21 23:30N 51°22' E 003°54'612.3
2017-Aug-21 23:01N 51°26' E 004°01'611.6
2017-Aug-21 22:30N 51°22' E 004°08'4 8.0
2017-Aug-21 22:00N 51°21' E 004°15'2 3.7
2017-Aug-21 21:30N 51°21' E 004°17'0 0.0
2017-Aug-21 21:01N 51°21' E 004°17'0 0.7
2017-Aug-21 20:30N 51°21' E 004°18'2 3.7
2017-Aug-21 20:00N 51°19' E 004°19'2 4.6
2017-Aug-21 19:31N 51°17' E 004°21'1 2.5
2017-Aug-21 18:59N 51°17' E 004°23'0 0.0
2017-Aug-21 18:29N 51°17' E 004°23'0 0.0
2017-Aug-21 17:59N 51°17' E 004°23'0 0.0
2017-Aug-21 17:29N 51°17' E 004°23'0 0.0
2017-Aug-21 16:59N 51°17' E 004°23'0 0.0
2017-Aug-21 16:29N 51°17' E 004°23'0 0.0
2017-Aug-21 15:59N 51°17' E 004°23'0 0.0
2017-Aug-21 15:29N 51°17' E 004°23'0 0.0
2017-Aug-21 14:59N 51°17' E 004°23'0 0.0
2017-Aug-21 14:29N 51°17' E 004°23'0 0.0
2017-Aug-21 13:59N 51°17' E 004°23'0 0.0
2017-Aug-21 13:29N 51°17' E 004°23'0 0.0
2017-Aug-21 12:59N 51°17' E 004°23'0 0.0
2017-Aug-21 12:29N 51°17' E 004°23'0 0.0
2017-Aug-21 11:59N 51°17' E 004°23'0 0.0
2017-Aug-21 11:29N 51°17' E 004°23'0 0.0
2017-Aug-21 10:59N 51°17' E 004°23'0 0.0
2017-Aug-21 10:29N 51°17' E 004°23'0 0.0
2017-Aug-21 09:59N 51°17' E 004°23'0 0.0
2017-Aug-21 09:29N 51°17' E 004°23'0 0.0
2017-Aug-21 08:59N 51°17' E 004°23'0 0.0
2017-Aug-21 08:29N 51°17' E 004°23'0 0.0
2017-Aug-21 07:59N 51°17' E 004°23'0 0.0
2017-Aug-21 07:29N 51°17' E 004°23'0 0.0
2017-Aug-21 06:59N 51°17' E 004°23'0 0.0
2017-Aug-21 06:29N 51°17' E 004°23'0 0.0
2017-Aug-21 05:59N 51°17' E 004°23'0 0.0
2017-Aug-21 05:29N 51°17' E 004°23'0 0.0
2017-Aug-21 04:56N 51°17' E 004°23'0 0.0
2017-Aug-21 04:29N 51°17' E 004°23'0 0.0
2017-Aug-21 03:59N 51°17' E 004°23'0 0.0
2017-Aug-21 03:29N 51°17' E 004°23'0 0.0
2017-Aug-21 02:56N 51°17' E 004°23'0 0.0
2017-Aug-21 02:29N 51°17' E 004°23'0 0.0
2017-Aug-21 01:59N 51°17' E 004°23'0 0.0
2017-Aug-21 01:29N 51°17' E 004°23'0 0.0
2017-Aug-21 00:59N 51°17' E 004°23'0 0.0
2017-Aug-21 00:29N 51°17' E 004°23'0 0.0
2017-Aug-20 23:59N 51°17' E 004°23'0 0.0
2017-Aug-20 23:29N 51°17' E 004°23'0 0.0
2017-Aug-20 22:59N 51°17' E 004°23'0 0.0
2017-Aug-20 22:26N 51°17' E 004°23'0 0.0
2017-Aug-20 21:59N 51°17' E 004°23'0 0.0
2017-Aug-20 21:29N 51°17' E 004°23'0 0.0
2017-Aug-20 20:59N 51°17' E 004°23'0 0.0
2017-Aug-20 20:29N 51°17' E 004°23'0 0.0
2017-Aug-20 19:59N 51°17' E 004°23'0 0.0
2017-Aug-20 19:29N 51°17' E 004°23'0 0.0
2017-Aug-20 18:59N 51°17' E 004°23'0 0.0
2017-Aug-20 18:29N 51°17' E 004°23'0 0.0
2017-Aug-20 17:59N 51°17' E 004°23'0 0.0
2017-Aug-20 17:26N 51°17' E 004°23'0 0.0
2017-Aug-20 16:59N 51°17' E 004°23'0 0.0
2017-Aug-20 16:29N 51°17' E 004°23'0 0.0
2017-Aug-20 15:59N 51°17' E 004°23'0 0.0
2017-Aug-20 15:29N 51°17' E 004°23'0 0.0
2017-Aug-20 14:59N 51°17' E 004°23'0 0.0
2017-Aug-20 14:29N 51°17' E 004°23'0 0.0
2017-Aug-20 13:59N 51°17' E 004°23'0 0.0
2017-Aug-20 13:29N 51°17' E 004°23'0 0.0
2017-Aug-20 12:59N 51°17' E 004°23'0 0.0
2017-Aug-20 12:29N 51°17' E 004°23'0 0.0
2017-Aug-20 11:59N 51°17' E 004°23'0 0.0
2017-Aug-20 11:29N 51°17' E 004°23'0 0.0
2017-Aug-20 10:59N 51°17' E 004°23'0 0.0
2017-Aug-20 10:29N 51°17' E 004°23'0 0.0
2017-Aug-20 09:59N 51°17' E 004°23'0 0.0
2017-Aug-20 09:29N 51°17' E 004°23'0 0.0
2017-Aug-20 08:59N 51°17' E 004°23'0 0.0
2017-Aug-20 08:29N 51°17' E 004°23'0 0.0
2017-Aug-20 07:59N 51°17' E 004°23'0 0.0
2017-Aug-20 07:29N 51°17' E 004°23'0 0.0
2017-Aug-20 06:59N 51°17' E 004°23'0 0.0
2017-Aug-20 06:29N 51°17' E 004°23'0 0.0
2017-Aug-20 05:59N 51°17' E 004°23'0 0.0
2017-Aug-20 05:29N 51°17' E 004°23'0 0.0
2017-Aug-20 04:59N 51°17' E 004°23'0 0.0
2017-Aug-20 04:29N 51°17' E 004°23'0 0.0
2017-Aug-20 03:59N 51°17' E 004°23'0 0.0
2017-Aug-20 03:29N 51°17' E 004°23'0 0.0
2017-Aug-20 02:59N 51°17' E 004°23'0 0.0
2017-Aug-20 02:29N 51°17' E 004°23'0 0.0
2017-Aug-20 01:59N 51°17' E 004°23'0 0.0
2017-Aug-20 01:29N 51°17' E 004°23'0 0.0
2017-Aug-20 00:59N 51°17' E 004°23'0 0.0
2017-Aug-20 00:29N 51°17' E 004°23'0 0.0
2017-Aug-19 23:59N 51°17' E 004°23'0 0.0
2017-Aug-19 23:29N 51°17' E 004°23'0 0.0
2017-Aug-19 22:59N 51°17' E 004°23'0 0.0
2017-Aug-19 22:29N 51°17' E 004°23'0 0.0
2017-Aug-19 21:59N 51°17' E 004°23'0 0.0
2017-Aug-19 21:29N 51°17' E 004°23'0 0.0
2017-Aug-19 20:59N 51°17' E 004°23'0 0.0
2017-Aug-19 20:29N 51°17' E 004°23'0 0.0
2017-Aug-19 19:59N 51°17' E 004°23'0 0.0
2017-Aug-19 19:29N 51°17' E 004°23'0 0.0
2017-Aug-19 18:59N 51°17' E 004°23'0 0.0
2017-Aug-19 18:29N 51°17' E 004°23'0 0.0
2017-Aug-19 17:59N 51°17' E 004°23'0 0.0
2017-Aug-19 17:29N 51°17' E 004°23'0 0.0
2017-Aug-19 16:59N 51°17' E 004°23'0 0.0
2017-Aug-19 16:29N 51°17' E 004°23'0 0.0
2017-Aug-19 15:59N 51°17' E 004°23'0 0.0
2017-Aug-19 15:29N 51°17' E 004°23'0 0.0
2017-Aug-19 14:59N 51°17' E 004°23'0 0.0
2017-Aug-19 13:59N 51°17' E 004°23'0 0.0
2017-Aug-19 13:29N 51°17' E 004°23'0 0.0
2017-Aug-19 12:59N 51°17' E 004°23'0 0.0
2017-Aug-19 12:29N 51°17' E 004°23'0 0.0
2017-Aug-19 11:59N 51°17' E 004°23'0 0.0
2017-Aug-19 11:29N 51°17' E 004°23'0 0.0
2017-Aug-19 10:59N 51°17' E 004°23'0 0.0
2017-Aug-19 10:29N 51°17' E 004°23'0 0.0
2017-Aug-19 09:59N 51°17' E 004°23'0 0.0
2017-Aug-19 09:29N 51°17' E 004°23'0 0.0
2017-Aug-19 08:59N 51°17' E 004°23'0 0.0
2017-Aug-19 08:29N 51°17' E 004°23'0 0.0
2017-Aug-19 07:59N 51°17' E 004°23'0 0.0
2017-Aug-19 07:29N 51°17' E 004°23'0 0.0
2017-Aug-19 06:59N 51°17' E 004°23'0 0.0
2017-Aug-19 06:29N 51°17' E 004°23'0 0.0
2017-Aug-19 05:59N 51°17' E 004°23'0 0.0
2017-Aug-19 05:29N 51°17' E 004°23'0 0.0
2017-Aug-19 04:59N 51°17' E 004°23'0 0.0
2017-Aug-19 04:29N 51°17' E 004°23'0 0.0
2017-Aug-19 03:59N 51°17' E 004°23'0 0.0
2017-Aug-19 03:29N 51°17' E 004°23'0 0.0
2017-Aug-19 02:59N 51°17' E 004°23'0 0.0
2017-Aug-19 02:29N 51°17' E 004°23'0 0.0
2017-Aug-19 01:59N 51°17' E 004°23'0 0.0
2017-Aug-19 01:29N 51°17' E 004°23'0 0.0
2017-Aug-19 00:59N 51°17' E 004°23'0 0.0
2017-Aug-19 00:29N 51°17' E 004°23'0 0.0
2017-Aug-18 23:59N 51°17' E 004°23'0 0.0
2017-Aug-18 23:29N 51°17' E 004°23'0 0.0
2017-Aug-18 22:59N 51°17' E 004°23'0 0.0
2017-Aug-18 22:29N 51°17' E 004°23'0 0.0
2017-Aug-18 21:59N 51°17' E 004°23'0 0.0
2017-Aug-18 21:29N 51°17' E 004°23'0 0.0
2017-Aug-18 20:59N 51°17' E 004°23'0 0.0
2017-Aug-18 20:29N 51°17' E 004°23'0 0.0
2017-Aug-18 19:59N 51°17' E 004°23'0 0.0
2017-Aug-18 19:29N 51°17' E 004°23'0 0.0
2017-Aug-18 18:59N 51°17' E 004°23'0 0.0
2017-Aug-18 18:29N 51°17' E 004°23'0 0.0
2017-Aug-18 17:59N 51°17' E 004°23'0 0.0
2017-Aug-18 17:29N 51°17' E 004°23'0 0.0
2017-Aug-18 16:59N 51°17' E 004°23'0 0.0
2017-Aug-18 16:29N 51°17' E 004°23'0 0.0
2017-Aug-18 15:59N 51°17' E 004°23'0 0.0
2017-Aug-18 15:29N 51°17' E 004°23'0 0.0
2017-Aug-18 14:59N 51°17' E 004°23'0 0.0
2017-Aug-18 14:29N 51°17' E 004°23'0 0.0
2017-Aug-18 13:29N 51°17' E 004°23'0 0.0
2017-Aug-18 12:59N 51°17' E 004°23'0 0.0
2017-Aug-18 12:29N 51°17' E 004°23'0 0.0
2017-Aug-18 11:56N 51°17' E 004°23'0 0.0
2017-Aug-18 11:29N 51°17' E 004°23'0 0.0
2017-Aug-18 10:59N 51°17' E 004°23'0 0.0
2017-Aug-18 10:29N 51°17' E 004°23'0 0.0
2017-Aug-18 09:59N 51°17' E 004°23'0 0.0
2017-Aug-18 09:26N 51°17' E 004°23'0 0.0
2017-Aug-18 08:59N 51°17' E 004°23'0 0.0
2017-Aug-18 08:26N 51°17' E 004°23'0 0.0
2017-Aug-18 07:59N 51°17' E 004°23'0 0.0
2017-Aug-18 07:29N 51°17' E 004°23'0 0.0
2017-Aug-18 06:59N 51°17' E 004°23'0 0.0
2017-Aug-18 06:29N 51°17' E 004°23'0 0.0
2017-Aug-18 05:59N 51°17' E 004°23'0 0.0
2017-Aug-18 05:29N 51°17' E 004°23'0 0.0
2017-Aug-18 04:59N 51°17' E 004°23'0 0.0
2017-Aug-18 04:29N 51°17' E 004°23'0 0.0
2017-Aug-18 03:59N 51°17' E 004°23'0 0.0
2017-Aug-18 03:29N 51°17' E 004°23'0 0.0
2017-Aug-18 02:59N 51°17' E 004°23'0 0.0
2017-Aug-18 02:29N 51°17' E 004°23'0 0.0
2017-Aug-18 01:59N 51°17' E 004°23'0 0.0
2017-Aug-18 01:29N 51°17' E 004°23'0 0.0
2017-Aug-18 00:59N 51°17' E 004°23'0 0.0
2017-Aug-18 00:29N 51°17' E 004°23'0 0.0
2017-Aug-17 23:59N 51°17' E 004°23'0 0.0
2017-Aug-17 23:29N 51°17' E 004°23'0 0.0
2017-Aug-17 22:59N 51°17' E 004°23'0 0.0
2017-Aug-17 22:29N 51°17' E 004°23'0 0.0
2017-Aug-17 21:59N 51°17' E 004°23'0 0.0
2017-Aug-17 21:29N 51°17' E 004°23'0 0.0
2017-Aug-17 20:56N 51°17' E 004°23'0 0.0
2017-Aug-17 20:29N 51°17' E 004°23'0 0.0
2017-Aug-17 19:59N 51°17' E 004°23'0 0.0
2017-Aug-17 19:29N 51°17' E 004°23'0 0.0
2017-Aug-17 18:59N 51°17' E 004°23'0 0.0
2017-Aug-17 18:29N 51°17' E 004°23'0 0.0
2017-Aug-17 17:59N 51°17' E 004°23'0 0.0
2017-Aug-17 17:29N 51°17' E 004°23'0 0.0
2017-Aug-17 16:59N 51°17' E 004°23'0 0.0
2017-Aug-17 16:29N 51°17' E 004°23'0 0.0
2017-Aug-17 15:59N 51°17' E 004°23'0 0.0
2017-Aug-17 15:29N 51°17' E 004°23'0 0.0
2017-Aug-17 14:59N 51°17' E 004°23'0 0.0
2017-Aug-17 14:29N 51°17' E 004°23'0 0.0
2017-Aug-17 13:59N 51°17' E 004°23'0 0.0
2017-Aug-17 13:29N 51°17' E 004°23'0 0.0
2017-Aug-17 12:59N 51°17' E 004°23'0 0.0
2017-Aug-17 12:29N 51°17' E 004°23'0 0.0
2017-Aug-17 11:59N 51°17' E 004°23'0 0.0
2017-Aug-17 11:29N 51°17' E 004°23'0 0.0
2017-Aug-17 10:59N 51°17' E 004°23'0 0.0
2017-Aug-17 10:29N 51°17' E 004°23'0 0.0
2017-Aug-17 09:59N 51°17' E 004°23'0 0.0
2017-Aug-17 09:29N 51°17' E 004°23'0 0.0
2017-Aug-17 08:56N 51°17' E 004°23'0 0.0
2017-Aug-17 08:29N 51°17' E 004°23'0 0.0
2017-Aug-17 07:59N 51°17' E 004°23'0 0.0
2017-Aug-17 07:29N 51°17' E 004°23'0 0.0
2017-Aug-17 06:59N 51°17' E 004°23'0 0.0
2017-Aug-17 06:29N 51°17' E 004°23'0 0.0
2017-Aug-17 05:59N 51°17' E 004°23'0 0.0
2017-Aug-17 05:29N 51°17' E 004°23'0 0.0
2017-Aug-17 04:59N 51°17' E 004°23'0 0.0
2017-Aug-17 04:29N 51°17' E 004°23'0 0.0
2017-Aug-17 03:59N 51°17' E 004°23'0 0.0
2017-Aug-17 03:29N 51°17' E 004°23'0 0.0
2017-Aug-17 02:59N 51°17' E 004°23'0 0.0
2017-Aug-17 02:29N 51°17' E 004°23'0 0.0
2017-Aug-17 01:59N 51°17' E 004°23'0 0.0
2017-Aug-17 01:29N 51°17' E 004°23'0 0.0
2017-Aug-17 00:59N 51°17' E 004°23'0 0.0
2017-Aug-17 00:29N 51°17' E 004°23'0 0.0
2017-Aug-16 23:59N 51°17' E 004°23'0 0.0
2017-Aug-16 23:29N 51°17' E 004°23'0 0.0
2017-Aug-16 22:59N 51°17' E 004°23'0 0.0
2017-Aug-16 22:29N 51°17' E 004°23'0 0.0
2017-Aug-16 21:59N 51°17' E 004°23'0 0.0
2017-Aug-16 21:29N 51°17' E 004°23'0 0.0
2017-Aug-16 20:59N 51°17' E 004°23'0 0.0
2017-Aug-16 20:29N 51°17' E 004°23'0 0.0
2017-Aug-16 19:59N 51°17' E 004°23'0 0.0
2017-Aug-16 19:29N 51°17' E 004°23'0 0.0
2017-Aug-16 18:59N 51°17' E 004°23'0 0.0
2017-Aug-16 18:29N 51°17' E 004°23'0 0.0
2017-Aug-16 17:59N 51°17' E 004°23'0 0.0
2017-Aug-16 17:29N 51°17' E 004°23'0 0.0
2017-Aug-16 16:59N 51°17' E 004°23'0 0.0
2017-Aug-16 16:29N 51°17' E 004°23'0 0.0
2017-Aug-16 15:59N 51°17' E 004°23'0 0.0
2017-Aug-16 15:29N 51°17' E 004°23'0 0.0
2017-Aug-16 14:59N 51°17' E 004°23'0 0.0
2017-Aug-16 14:29N 51°17' E 004°23'0 0.0
2017-Aug-16 13:59N 51°17' E 004°23'0 0.0
2017-Aug-16 13:29N 51°17' E 004°23'0 0.0
2017-Aug-16 12:59N 51°17' E 004°23'0 0.0
2017-Aug-16 12:29N 51°17' E 004°23'0 0.0
2017-Aug-16 11:59N 51°17' E 004°23'0 0.0
2017-Aug-16 11:29N 51°17' E 004°23'0 0.0
2017-Aug-16 10:59N 51°17' E 004°23'0 0.0
2017-Aug-16 10:29N 51°17' E 004°23'0 0.0
2017-Aug-16 09:59N 51°17' E 004°23'0 0.0
2017-Aug-16 09:29N 51°17' E 004°23'0 0.0
2017-Aug-16 08:59N 51°17' E 004°23'1 1.1
2017-Aug-16 08:31N 51°17' E 004°22'1 2.9
2017-Aug-16 08:01N 51°17' E 004°20'0 0.0
2017-Aug-16 07:30N 51°17' E 004°20'0 0.5
2017-Aug-16 07:00N 51°17' E 004°20'3 6.4
2017-Aug-16 06:30N 51°19' E 004°16'611.0
2017-Aug-16 06:00N 51°23' E 004°10'612.2
2017-Aug-16 05:31N 51°26' E 004°01'815.4
2017-Aug-16 05:00N 51°21' E 003°52'714.1
2017-Aug-16 04:31N 51°25' E 003°42'510.7
2017-Aug-16 04:00N 51°25' E 003°34'4 8.4
2017-Aug-16 03:30N 51°25' E 003°27'611.7
2017-Aug-16 03:00N 51°24' E 003°18'714.3
2017-Aug-16 02:30N 51°24' E 003°06'713.4
2017-Aug-16 02:00N 51°22' E 002°56'714.8
2017-Aug-16 01:30N 51°22' E 002°44'612.0
2017-Aug-16 01:00N 51°22' E 002°35'713.3
2017-Aug-16 00:31N 51°20' E 002°24'2 4.6
2017-Aug-16 00:00N 51°21' E 002°21'510.1
2017-Aug-15 23:30N 51°22' E 002°28'1 2.4
2017-Aug-15 23:00N 51°21' E 002°27'4 8.8
2017-Aug-15 22:30N 51°19' E 002°21'510.4
2017-Aug-15 22:00N 51°16' E 002°14'510.7
2017-Aug-15 21:30N 51°13' E 002°07'510.9
2017-Aug-15 21:00N 51°11' E 001°59'611.1
2017-Aug-15 20:30N 51°08' E 001°52'714.0
2017-Aug-15 20:01N 51°04' E 001°43'815.3
2017-Aug-15 19:31N 50°58' E 001°35'815.7
2017-Aug-15 19:01N 50°52' E 001°28'815.3
2017-Aug-15 18:31N 50°45' E 001°23'714.7
2017-Aug-15 18:00N 50°39' E 001°15'714.9
2017-Aug-15 17:31N 50°34' E 001°06'714.9
2017-Aug-15 17:00N 50°30' E 000°57'2815.1
2017-Aug-15 15:11N 50°22' E 000°16'1015.6
2017-Aug-15 14:33N 50°19' E 000°01'115.5
2017-Aug-15 14:30N 50°19' W 000°00'1816.0
2017-Aug-15 13:24N 50°15' W 000°28'1217.3
2017-Aug-15 12:44N 50°12' W 000°45'417.2
2017-Aug-15 12:30N 50°11' W 000°51'917.1
2017-Aug-15 12:01N 50°09' W 001°04'816.6
2017-Aug-15 11:30N 50°06' W 001°16'816.2
2017-Aug-15 11:00N 50°04' W 001°28'816.4
2017-Aug-15 10:31N 50°02' W 001°40'816.3
2017-Aug-15 10:01N 49°59' W 001°52'815.5
2017-Aug-15 09:28N 49°57' W 002°05'1814.9
2017-Aug-15 08:16N 49°52' W 002°32'414.6
2017-Aug-15 08:01N 49°52' W 002°37'714.7
2017-Aug-15 07:30N 49°50' W 002°48'1614.5
2017-Aug-15 06:23N 49°42' W 003°10'514.6
2017-Aug-15 06:01N 49°39' W 003°18'714.7
2017-Aug-15 05:30N 49°35' W 003°28'3614.8
2017-Aug-15 03:04N 49°17' W 004°16'215.1
2017-Aug-15 02:56N 49°16' W 004°18'615.0
2017-Aug-15 02:30N 49°13' W 004°27'815.2
2017-Aug-15 02:00N 49°09' W 004°37'815.3
2017-Aug-15 01:28N 49°05' W 004°48'815.4
2017-Aug-15 00:54N 49°00' W 004°59'615.3
2017-Aug-15 00:30N 48°57' W 005°07'1015.5
2017-Aug-14 23:53N 48°52' W 005°20'1215.4
2017-Aug-14 23:07N 48°46' W 005°35'214.9
2017-Aug-14 22:58N 48°45' W 005°38'3114.9
2017-Aug-14 20:53N 48°15' W 005°50'717.1
2017-Aug-14 20:30N 48°11' W 005°42'917.7
2017-Aug-14 20:00N 48°05' W 005°32'917.7
2017-Aug-14 19:30N 47°60' W 005°22'918.1
2017-Aug-14 19:00N 47°54' W 005°12'918.2
2017-Aug-14 18:30N 47°48' W 005°01'918.2
2017-Aug-14 18:00N 47°44' W 004°49'917.8
2017-Aug-14 17:31N 47°39' W 004°38'917.6
2017-Aug-14 17:01N 47°34' W 004°27'917.7
2017-Aug-14 16:30N 47°30' W 004°16'917.9
2017-Aug-14 16:01N 47°25' W 004°05'917.6
2017-Aug-14 15:31N 47°20' W 003°54'917.5
2017-Aug-14 15:01N 47°16' W 003°43'816.3
2017-Aug-14 14:31N 47°12' W 003°32'815.9
2017-Aug-14 14:00N 47°08' W 003°22'816.1
2017-Aug-14 13:31N 47°05' W 003°11'916.5
2017-Aug-14 12:59N 47°03' W 002°59'816.5
2017-Aug-14 12:31N 47°01' W 002°48'816.4
2017-Aug-14 12:00N 47°02' W 002°35'816.3
2017-Aug-14 11:31N 47°06' W 002°25'612.2
2017-Aug-14 11:01N 47°10' W 002°19'714.6
2017-Aug-14 10:30N 47°16' W 002°12'3 5.6
2017-Aug-14 10:00N 47°18' W 002°09'0 0.0
2017-Aug-14 09:29N 47°18' W 002°09'0 0.0
2017-Aug-14 08:59N 47°18' W 002°09'0 0.0
2017-Aug-14 08:29N 47°18' W 002°09'0 0.0
2017-Aug-14 07:59N 47°18' W 002°09'0 0.0
2017-Aug-14 07:29N 47°18' W 002°09'0 0.0
2017-Aug-14 06:59N 47°18' W 002°09'0 0.0
2017-Aug-14 06:29N 47°18' W 002°09'0 0.0
2017-Aug-14 05:59N 47°18' W 002°09'0 0.0
2017-Aug-14 05:29N 47°18' W 002°09'0 0.0
2017-Aug-14 04:59N 47°18' W 002°09'0 0.0
2017-Aug-14 04:30N 47°18' W 002°09'1 2.3
2017-Aug-14 04:00N 47°17' W 002°10'612.6
2017-Aug-14 03:31N 47°13' W 002°17'612.2
2017-Aug-14 03:01N 47°08' W 002°22'4 8.7
2017-Aug-14 02:30N 47°04' W 002°26'713.7
2017-Aug-14 02:00N 47°01' W 002°35'713.1
2017-Aug-14 01:30N 47°00' W 002°45'713.9
2017-Aug-14 01:00N 47°01' W 002°55'713.7
2017-Aug-14 00:30N 47°02' W 003°05'713.9
2017-Aug-14 00:01N 47°04' W 003°15'714.1
2017-Aug-13 23:31N 47°05' W 003°25'814.1
2017-Aug-13 22:56N 47°06' W 003°37'614.1
2017-Aug-13 22:31N 47°07' W 003°45'714.3
2017-Aug-13 22:01N 47°08' W 003°56'914.2
2017-Aug-13 21:22N 47°10' W 004°09'514.4
2017-Aug-13 21:01N 47°11' W 004°16'1914.7
2017-Aug-13 19:44N 47°14' W 004°43'415.1
2017-Aug-13 19:27N 47°15' W 004°50'  

Dump ship's entire track history